sensor_id;sensor_type;location;lat;lon;timestamp;P1;durP1;ratioP1;P2;durP2;ratioP2
4642;SDS011;2334;48.710;9.622;2022-10-16T00:00:35;3.40;;;2.30;;
4642;SDS011;2334;48.710;9.622;2022-10-16T00:03:03;4.30;;;2.43;;
4642;SDS011;2334;48.710;9.622;2022-10-16T00:05:31;4.53;;;2.33;;
4642;SDS011;2334;48.710;9.622;2022-10-16T00:07:58;3.00;;;2.50;;
4642;SDS011;2334;48.710;9.622;2022-10-16T00:10:25;3.47;;;1.80;;
4642;SDS011;2334;48.710;9.622;2022-10-16T00:12:53;5.03;;;2.67;;
4642;SDS011;2334;48.710;9.622;2022-10-16T00:15:20;2.03;;;1.87;;
4642;SDS011;2334;48.710;9.622;2022-10-16T00:17:47;3.37;;;2.63;;
4642;SDS011;2334;48.710;9.622;2022-10-16T00:20:14;3.43;;;2.07;;
4642;SDS011;2334;48.710;9.622;2022-10-16T00:22:40;4.27;;;2.30;;
4642;SDS011;2334;48.710;9.622;2022-10-16T00:25:07;3.87;;;2.03;;
4642;SDS011;2334;48.710;9.622;2022-10-16T00:27:34;4.43;;;2.30;;
4642;SDS011;2334;48.710;9.622;2022-10-16T00:30:03;5.17;;;2.87;;
4642;SDS011;2334;48.710;9.622;2022-10-16T00:32:31;4.80;;;2.80;;
4642;SDS011;2334;48.710;9.622;2022-10-16T00:34:57;5.47;;;2.63;;
4642;SDS011;2334;48.710;9.622;2022-10-16T00:37:24;4.40;;;2.53;;
4642;SDS011;2334;48.710;9.622;2022-10-16T00:39:51;5.30;;;2.80;;
4642;SDS011;2334;48.710;9.622;2022-10-16T00:42:18;4.17;;;2.60;;
4642;SDS011;2334;48.710;9.622;2022-10-16T00:44:49;5.30;;;3.20;;
4642;SDS011;2334;48.710;9.622;2022-10-16T00:47:20;4.83;;;3.33;;
4642;SDS011;2334;48.710;9.622;2022-10-16T00:49:51;5.57;;;3.53;;
4642;SDS011;2334;48.710;9.622;2022-10-16T00:52:22;5.37;;;4.17;;
4642;SDS011;2334;48.710;9.622;2022-10-16T00:54:49;4.23;;;3.10;;
4642;SDS011;2334;48.710;9.622;2022-10-16T00:57:18;4.50;;;3.03;;
4642;SDS011;2334;48.710;9.622;2022-10-16T00:59:45;5.87;;;4.10;;
4642;SDS011;2334;48.710;9.622;2022-10-16T01:02:14;4.50;;;3.27;;
4642;SDS011;2334;48.710;9.622;2022-10-16T01:04:44;6.03;;;4.10;;
4642;SDS011;2334;48.710;9.622;2022-10-16T01:07:14;5.10;;;3.20;;
4642;SDS011;2334;48.710;9.622;2022-10-16T01:09:52;16.73;;;3.90;;
4642;SDS011;2334;48.710;9.622;2022-10-16T01:12:31;4.80;;;2.93;;
4642;SDS011;2334;48.710;9.622;2022-10-16T01:15:06;7.23;;;3.20;;
4642;SDS011;2334;48.710;9.622;2022-10-16T01:17:39;6.47;;;2.93;;
4642;SDS011;2334;48.710;9.622;2022-10-16T01:20:13;3.73;;;2.30;;
4642;SDS011;2334;48.710;9.622;2022-10-16T01:22:55;2.40;;;2.10;;
4642;SDS011;2334;48.710;9.622;2022-10-16T01:25:33;4.57;;;2.83;;
4642;SDS011;2334;48.710;9.622;2022-10-16T01:28:29;2.57;;;2.37;;
4642;SDS011;2334;48.710;9.622;2022-10-16T01:31:02;5.17;;;2.53;;
4642;SDS011;2334;48.710;9.622;2022-10-16T01:33:32;5.80;;;2.90;;
4642;SDS011;2334;48.710;9.622;2022-10-16T01:36:05;5.20;;;2.87;;
4642;SDS011;2334;48.710;9.622;2022-10-16T01:38:37;2.70;;;2.20;;
4642;SDS011;2334;48.710;9.622;2022-10-16T01:41:07;2.80;;;2.33;;
4642;SDS011;2334;48.710;9.622;2022-10-16T01:43:39;2.57;;;2.13;;
4642;SDS011;2334;48.710;9.622;2022-10-16T01:46:11;3.10;;;2.00;;
4642;SDS011;2334;48.710;9.622;2022-10-16T01:48:42;4.07;;;2.40;;
4642;SDS011;2334;48.710;9.622;2022-10-16T01:51:10;4.30;;;3.07;;
4642;SDS011;2334;48.710;9.622;2022-10-16T01:53:38;2.70;;;2.30;;
4642;SDS011;2334;48.710;9.622;2022-10-16T01:56:06;3.80;;;2.07;;
4642;SDS011;2334;48.710;9.622;2022-10-16T01:58:37;3.20;;;2.50;;
4642;SDS011;2334;48.710;9.622;2022-10-16T02:01:12;3.70;;;3.40;;
4642;SDS011;2334;48.710;9.622;2022-10-16T02:03:43;3.50;;;1.67;;
4642;SDS011;2334;48.710;9.622;2022-10-16T02:06:11;1.53;;;1.20;;
4642;SDS011;2334;48.710;9.622;2022-10-16T02:08:38;3.00;;;2.13;;
4642;SDS011;2334;48.710;9.622;2022-10-16T02:11:09;2.53;;;1.83;;
4642;SDS011;2334;48.710;9.622;2022-10-16T02:13:37;1.73;;;1.63;;
4642;SDS011;2334;48.710;9.622;2022-10-16T02:16:08;3.17;;;2.00;;
4642;SDS011;2334;48.710;9.622;2022-10-16T02:18:36;2.30;;;1.53;;
4642;SDS011;2334;48.710;9.622;2022-10-16T02:21:05;2.93;;;2.40;;
4642;SDS011;2334;48.710;9.622;2022-10-16T02:23:42;2.03;;;1.83;;
4642;SDS011;2334;48.710;9.622;2022-10-16T02:26:13;2.00;;;1.80;;
4642;SDS011;2334;48.710;9.622;2022-10-16T02:28:45;3.40;;;2.00;;
4642;SDS011;2334;48.710;9.622;2022-10-16T02:31:20;3.10;;;1.80;;
4642;SDS011;2334;48.710;9.622;2022-10-16T02:33:53;2.27;;;2.00;;
4642;SDS011;2334;48.710;9.622;2022-10-16T02:36:24;1.37;;;1.27;;
4642;SDS011;2334;48.710;9.622;2022-10-16T02:38:51;5.40;;;1.63;;
4642;SDS011;2334;48.710;9.622;2022-10-16T02:41:20;4.93;;;1.23;;
4642;SDS011;2334;48.710;9.622;2022-10-16T02:43:47;1.37;;;1.27;;
4642;SDS011;2334;48.710;9.622;2022-10-16T02:46:15;1.40;;;1.30;;
4642;SDS011;2334;48.710;9.622;2022-10-16T02:48:44;3.50;;;1.23;;
4642;SDS011;2334;48.710;9.622;2022-10-16T02:51:11;4.43;;;1.80;;
4642;SDS011;2334;48.710;9.622;2022-10-16T02:53:38;1.40;;;1.30;;
4642;SDS011;2334;48.710;9.622;2022-10-16T02:56:05;1.40;;;1.30;;
4642;SDS011;2334;48.710;9.622;2022-10-16T02:58:32;2.10;;;1.77;;
4642;SDS011;2334;48.710;9.622;2022-10-16T03:00:58;1.77;;;1.67;;
4642;SDS011;2334;48.710;9.622;2022-10-16T03:03:25;4.70;;;1.30;;
4642;SDS011;2334;48.710;9.622;2022-10-16T03:05:54;9.00;;;1.43;;
4642;SDS011;2334;48.710;9.622;2022-10-16T03:08:21;1.60;;;1.50;;
4642;SDS011;2334;48.710;9.622;2022-10-16T03:10:50;1.53;;;1.43;;
4642;SDS011;2334;48.710;9.622;2022-10-16T03:13:17;1.63;;;1.43;;
4642;SDS011;2334;48.710;9.622;2022-10-16T03:15:45;2.80;;;1.30;;
4642;SDS011;2334;48.710;9.622;2022-10-16T03:18:12;1.87;;;1.40;;
4642;SDS011;2334;48.710;9.622;2022-10-16T03:20:39;4.90;;;2.00;;
4642;SDS011;2334;48.710;9.622;2022-10-16T03:23:07;4.10;;;1.23;;
4642;SDS011;2334;48.710;9.622;2022-10-16T03:25:34;7.67;;;1.60;;
4642;SDS011;2334;48.710;9.622;2022-10-16T03:28:01;4.70;;;1.80;;
4642;SDS011;2334;48.710;9.622;2022-10-16T03:30:28;6.90;;;1.20;;
4642;SDS011;2334;48.710;9.622;2022-10-16T03:32:55;1.83;;;1.33;;
4642;SDS011;2334;48.710;9.622;2022-10-16T03:35:22;1.80;;;1.23;;
4642;SDS011;2334;48.710;9.622;2022-10-16T03:37:50;3.40;;;1.33;;
4642;SDS011;2334;48.710;9.622;2022-10-16T03:40:18;1.40;;;1.30;;
4642;SDS011;2334;48.710;9.622;2022-10-16T03:42:45;2.00;;;1.40;;
4642;SDS011;2334;48.710;9.622;2022-10-16T03:45:12;2.57;;;1.50;;
4642;SDS011;2334;48.710;9.622;2022-10-16T03:47:39;3.10;;;1.10;;
4642;SDS011;2334;48.710;9.622;2022-10-16T03:50:07;1.40;;;1.30;;
4642;SDS011;2334;48.710;9.622;2022-10-16T03:52:34;2.33;;;1.20;;
4642;SDS011;2334;48.710;9.622;2022-10-16T03:55:01;1.27;;;1.07;;
4642;SDS011;2334;48.710;9.622;2022-10-16T03:57:30;2.43;;;1.37;;
4642;SDS011;2334;48.710;9.622;2022-10-16T03:59:57;2.23;;;1.40;;
4642;SDS011;2334;48.710;9.622;2022-10-16T04:02:23;1.40;;;1.30;;
4642;SDS011;2334;48.710;9.622;2022-10-16T04:04:50;4.23;;;1.63;;
4642;SDS011;2334;48.710;9.622;2022-10-16T04:07:17;1.30;;;1.20;;
4642;SDS011;2334;48.710;9.622;2022-10-16T04:09:44;2.00;;;1.50;;
4642;SDS011;2334;48.710;9.622;2022-10-16T04:12:11;1.43;;;1.33;;
4642;SDS011;2334;48.710;9.622;2022-10-16T04:14:39;2.80;;;1.50;;
4642;SDS011;2334;48.710;9.622;2022-10-16T04:17:06;1.43;;;1.33;;
4642;SDS011;2334;48.710;9.622;2022-10-16T04:19:33;1.00;;;1.00;;
4642;SDS011;2334;48.710;9.622;2022-10-16T04:22:00;1.30;;;1.20;;
4642;SDS011;2334;48.710;9.622;2022-10-16T04:24:27;1.23;;;1.13;;
4642;SDS011;2334;48.710;9.622;2022-10-16T04:26:53;2.20;;;1.40;;
4642;SDS011;2334;48.710;9.622;2022-10-16T04:29:20;1.70;;;1.17;;
4642;SDS011;2334;48.710;9.622;2022-10-16T04:31:48;1.63;;;1.37;;
4642;SDS011;2334;48.710;9.622;2022-10-16T04:34:15;1.53;;;1.43;;
4642;SDS011;2334;48.710;9.622;2022-10-16T04:36:42;1.33;;;1.10;;
4642;SDS011;2334;48.710;9.622;2022-10-16T04:39:09;2.53;;;1.20;;
4642;SDS011;2334;48.710;9.622;2022-10-16T04:41:36;2.70;;;1.20;;
4642;SDS011;2334;48.710;9.622;2022-10-16T04:44:03;2.07;;;1.73;;
4642;SDS011;2334;48.710;9.622;2022-10-16T04:46:30;4.53;;;1.00;;
4642;SDS011;2334;48.710;9.622;2022-10-16T04:48:58;1.67;;;1.30;;
4642;SDS011;2334;48.710;9.622;2022-10-16T04:51:25;4.70;;;1.53;;
4642;SDS011;2334;48.710;9.622;2022-10-16T04:53:52;1.50;;;1.40;;
4642;SDS011;2334;48.710;9.622;2022-10-16T04:56:19;1.00;;;1.00;;
4642;SDS011;2334;48.710;9.622;2022-10-16T04:58:47;5.20;;;1.53;;
4642;SDS011;2334;48.710;9.622;2022-10-16T05:01:14;7.80;;;1.60;;
4642;SDS011;2334;48.710;9.622;2022-10-16T05:03:40;1.60;;;1.40;;
4642;SDS011;2334;48.710;9.622;2022-10-16T05:06:09;3.70;;;1.20;;
4642;SDS011;2334;48.710;9.622;2022-10-16T05:08:35;3.50;;;1.40;;
4642;SDS011;2334;48.710;9.622;2022-10-16T05:11:02;1.60;;;1.07;;
4642;SDS011;2334;48.710;9.622;2022-10-16T05:13:30;1.33;;;1.30;;
4642;SDS011;2334;48.710;9.622;2022-10-16T05:15:56;1.20;;;1.20;;
4642;SDS011;2334;48.710;9.622;2022-10-16T05:18:23;1.30;;;1.20;;
4642;SDS011;2334;48.710;9.622;2022-10-16T05:20:50;1.10;;;1.00;;
4642;SDS011;2334;48.710;9.622;2022-10-16T05:23:18;1.40;;;1.27;;
4642;SDS011;2334;48.710;9.622;2022-10-16T05:25:51;1.43;;;1.03;;
4642;SDS011;2334;48.710;9.622;2022-10-16T05:28:19;3.30;;;1.17;;
4642;SDS011;2334;48.710;9.622;2022-10-16T05:30:46;3.03;;;1.23;;
4642;SDS011;2334;48.710;9.622;2022-10-16T05:33:13;8.70;;;1.13;;
4642;SDS011;2334;48.710;9.622;2022-10-16T05:35:40;5.73;;;1.60;;
4642;SDS011;2334;48.710;9.622;2022-10-16T05:38:07;1.40;;;0.93;;
4642;SDS011;2334;48.710;9.622;2022-10-16T05:40:35;1.67;;;1.40;;
4642;SDS011;2334;48.710;9.622;2022-10-16T05:43:02;1.27;;;1.17;;
4642;SDS011;2334;48.710;9.622;2022-10-16T05:45:29;2.20;;;1.20;;
4642;SDS011;2334;48.710;9.622;2022-10-16T05:47:56;2.70;;;1.33;;
4642;SDS011;2334;48.710;9.622;2022-10-16T05:50:22;1.93;;;1.27;;
4642;SDS011;2334;48.710;9.622;2022-10-16T05:52:49;1.40;;;1.30;;
4642;SDS011;2334;48.710;9.622;2022-10-16T05:55:16;13.87;;;1.33;;
4642;SDS011;2334;48.710;9.622;2022-10-16T05:57:45;1.30;;;1.20;;
4642;SDS011;2334;48.710;9.622;2022-10-16T06:00:12;0.93;;;0.93;;
4642;SDS011;2334;48.710;9.622;2022-10-16T06:02:39;4.87;;;1.00;;
4642;SDS011;2334;48.710;9.622;2022-10-16T06:05:06;0.97;;;0.97;;
4642;SDS011;2334;48.710;9.622;2022-10-16T06:07:33;1.30;;;1.20;;
4642;SDS011;2334;48.710;9.622;2022-10-16T06:10:01;1.60;;;1.50;;
4642;SDS011;2334;48.710;9.622;2022-10-16T06:12:28;1.30;;;1.30;;
4642;SDS011;2334;48.710;9.622;2022-10-16T06:14:56;2.00;;;1.00;;
4642;SDS011;2334;48.710;9.622;2022-10-16T06:17:23;1.50;;;1.40;;
4642;SDS011;2334;48.710;9.622;2022-10-16T06:19:50;1.33;;;1.23;;
4642;SDS011;2334;48.710;9.622;2022-10-16T06:22:17;2.10;;;1.20;;
4642;SDS011;2334;48.710;9.622;2022-10-16T06:24:43;1.97;;;1.20;;
4642;SDS011;2334;48.710;9.622;2022-10-16T06:27:11;3.03;;;1.30;;
4642;SDS011;2334;48.710;9.622;2022-10-16T06:29:38;1.40;;;1.30;;
4642;SDS011;2334;48.710;9.622;2022-10-16T06:32:06;1.30;;;1.20;;
4642;SDS011;2334;48.710;9.622;2022-10-16T06:34:33;2.43;;;1.10;;
4642;SDS011;2334;48.710;9.622;2022-10-16T06:37:00;1.43;;;1.33;;
4642;SDS011;2334;48.710;9.622;2022-10-16T06:39:27;1.60;;;1.50;;
4642;SDS011;2334;48.710;9.622;2022-10-16T06:41:54;1.77;;;1.67;;
4642;SDS011;2334;48.710;9.622;2022-10-16T06:44:21;2.07;;;1.60;;
4642;SDS011;2334;48.710;9.622;2022-10-16T06:46:47;1.80;;;1.70;;
4642;SDS011;2334;48.710;9.622;2022-10-16T06:49:16;1.67;;;1.57;;
4642;SDS011;2334;48.710;9.622;2022-10-16T06:51:47;3.27;;;1.90;;
4642;SDS011;2334;48.710;9.622;2022-10-16T06:54:14;4.80;;;1.50;;
4642;SDS011;2334;48.710;9.622;2022-10-16T06:56:42;2.17;;;1.97;;
4642;SDS011;2334;48.710;9.622;2022-10-16T06:59:09;1.50;;;1.40;;
4642;SDS011;2334;48.710;9.622;2022-10-16T07:01:36;1.60;;;1.50;;
4642;SDS011;2334;48.710;9.622;2022-10-16T07:04:03;2.50;;;1.80;;
4642;SDS011;2334;48.710;9.622;2022-10-16T07:06:32;2.47;;;2.20;;
4642;SDS011;2334;48.710;9.622;2022-10-16T07:09:01;2.00;;;1.90;;
4642;SDS011;2334;48.710;9.622;2022-10-16T07:11:29;2.80;;;2.40;;
4642;SDS011;2334;48.710;9.622;2022-10-16T07:13:56;2.03;;;1.83;;
4642;SDS011;2334;48.710;9.622;2022-10-16T07:16:23;3.10;;;2.03;;
4642;SDS011;2334;48.710;9.622;2022-10-16T07:18:52;3.10;;;2.33;;
4642;SDS011;2334;48.710;9.622;2022-10-16T07:21:23;2.80;;;2.13;;
4642;SDS011;2334;48.710;9.622;2022-10-16T07:23:52;2.07;;;1.97;;
4642;SDS011;2334;48.710;9.622;2022-10-16T07:26:19;5.73;;;2.13;;
4642;SDS011;2334;48.710;9.622;2022-10-16T07:28:46;4.20;;;1.20;;
4642;SDS011;2334;48.710;9.622;2022-10-16T07:31:14;1.57;;;1.47;;
4642;SDS011;2334;48.710;9.622;2022-10-16T07:33:44;4.97;;;1.77;;
4642;SDS011;2334;48.710;9.622;2022-10-16T07:36:12;2.10;;;1.90;;
4642;SDS011;2334;48.710;9.622;2022-10-16T07:38:40;7.60;;;3.83;;
4642;SDS011;2334;48.710;9.622;2022-10-16T07:41:10;12.27;;;3.90;;
4642;SDS011;2334;48.710;9.622;2022-10-16T07:43:39;6.10;;;4.43;;
4642;SDS011;2334;48.710;9.622;2022-10-16T07:46:06;4.70;;;3.93;;
4642;SDS011;2334;48.710;9.622;2022-10-16T07:48:33;8.63;;;4.63;;
4642;SDS011;2334;48.710;9.622;2022-10-16T07:51:01;6.53;;;3.90;;
4642;SDS011;2334;48.710;9.622;2022-10-16T07:53:29;11.33;;;4.60;;
4642;SDS011;2334;48.710;9.622;2022-10-16T07:55:57;4.87;;;3.73;;
4642;SDS011;2334;48.710;9.622;2022-10-16T07:58:26;3.70;;;3.40;;
4642;SDS011;2334;48.710;9.622;2022-10-16T08:00:53;6.30;;;3.10;;
4642;SDS011;2334;48.710;9.622;2022-10-16T08:03:20;5.53;;;3.60;;
4642;SDS011;2334;48.710;9.622;2022-10-16T08:05:47;4.07;;;2.67;;
4642;SDS011;2334;48.710;9.622;2022-10-16T08:08:14;4.77;;;3.13;;
4642;SDS011;2334;48.710;9.622;2022-10-16T08:10:42;3.00;;;2.80;;
4642;SDS011;2334;48.710;9.622;2022-10-16T08:13:10;9.20;;;3.03;;
4642;SDS011;2334;48.710;9.622;2022-10-16T08:15:41;3.03;;;2.83;;
4642;SDS011;2334;48.710;9.622;2022-10-16T08:18:09;3.37;;;2.97;;
4642;SDS011;2334;48.710;9.622;2022-10-16T08:20:36;7.93;;;3.80;;
4642;SDS011;2334;48.710;9.622;2022-10-16T08:23:03;4.67;;;3.60;;
4642;SDS011;2334;48.710;9.622;2022-10-16T08:25:30;5.93;;;3.90;;
4642;SDS011;2334;48.710;9.622;2022-10-16T08:27:58;7.23;;;4.63;;
4642;SDS011;2334;48.710;9.622;2022-10-16T08:30:24;8.83;;;5.33;;
4642;SDS011;2334;48.710;9.622;2022-10-16T08:32:53;6.90;;;4.83;;
4642;SDS011;2334;48.710;9.622;2022-10-16T08:35:20;8.13;;;3.50;;
4642;SDS011;2334;48.710;9.622;2022-10-16T08:37:47;5.00;;;3.30;;
4642;SDS011;2334;48.710;9.622;2022-10-16T08:40:16;9.87;;;3.07;;
4642;SDS011;2334;48.710;9.622;2022-10-16T08:45:44;6.20;;;3.63;;
4642;SDS011;2334;48.710;9.622;2022-10-16T08:48:27;8.43;;;3.40;;
4642;SDS011;2334;48.710;9.622;2022-10-16T08:51:00;5.13;;;3.70;;
4642;SDS011;2334;48.710;9.622;2022-10-16T08:53:29;8.83;;;3.70;;
4642;SDS011;2334;48.710;9.622;2022-10-16T08:56:02;4.43;;;3.13;;
4642;SDS011;2334;48.710;9.622;2022-10-16T08:58:30;8.40;;;5.30;;
4642;SDS011;2334;48.710;9.622;2022-10-16T09:00:58;2.77;;;2.57;;
4642;SDS011;2334;48.710;9.622;2022-10-16T09:03:45;8.83;;;3.40;;
4642;SDS011;2334;48.710;9.622;2022-10-16T09:06:35;7.20;;;3.40;;
4642;SDS011;2334;48.710;9.622;2022-10-16T09:09:14;6.20;;;3.07;;
4642;SDS011;2334;48.710;9.622;2022-10-16T09:12:00;4.00;;;2.67;;
4642;SDS011;2334;48.710;9.622;2022-10-16T09:14:37;3.03;;;2.73;;
4642;SDS011;2334;48.710;9.622;2022-10-16T09:17:21;5.50;;;2.70;;
4642;SDS011;2334;48.710;9.622;2022-10-16T09:19:58;3.83;;;2.20;;
4642;SDS011;2334;48.710;9.622;2022-10-16T09:22:44;4.33;;;2.97;;
4642;SDS011;2334;48.710;9.622;2022-10-16T09:25:12;4.80;;;3.47;;
4642;SDS011;2334;48.710;9.622;2022-10-16T09:27:40;4.40;;;2.03;;
4642;SDS011;2334;48.710;9.622;2022-10-16T09:30:11;4.00;;;2.53;;
4642;SDS011;2334;48.710;9.622;2022-10-16T09:32:40;2.80;;;2.60;;
4642;SDS011;2334;48.710;9.622;2022-10-16T09:35:13;3.63;;;3.30;;
4642;SDS011;2334;48.710;9.622;2022-10-16T09:37:43;2.90;;;2.60;;
4642;SDS011;2334;48.710;9.622;2022-10-16T09:40:13;3.87;;;2.33;;
4642;SDS011;2334;48.710;9.622;2022-10-16T09:42:50;4.20;;;3.50;;
4642;SDS011;2334;48.710;9.622;2022-10-16T09:45:27;4.60;;;3.43;;
4642;SDS011;2334;48.710;9.622;2022-10-16T09:47:54;8.93;;;2.57;;
4642;SDS011;2334;48.710;9.622;2022-10-16T09:50:24;6.10;;;3.10;;
4642;SDS011;2334;48.710;9.622;2022-10-16T09:53:05;2.43;;;2.17;;
4642;SDS011;2334;48.710;9.622;2022-10-16T09:55:47;3.37;;;3.07;;
4642;SDS011;2334;48.710;9.622;2022-10-16T09:58:15;4.30;;;2.50;;
4642;SDS011;2334;48.710;9.622;2022-10-16T10:00:42;3.37;;;3.07;;
4642;SDS011;2334;48.710;9.622;2022-10-16T10:03:17;6.37;;;2.70;;
4642;SDS011;2334;48.710;9.622;2022-10-16T10:06:03;3.00;;;2.80;;
4642;SDS011;2334;48.710;9.622;2022-10-16T10:08:33;3.20;;;2.63;;
4642;SDS011;2334;48.710;9.622;2022-10-16T10:11:00;9.13;;;3.67;;
4642;SDS011;2334;48.710;9.622;2022-10-16T10:13:26;4.33;;;2.93;;
4642;SDS011;2334;48.710;9.622;2022-10-16T10:15:53;3.17;;;2.67;;
4642;SDS011;2334;48.710;9.622;2022-10-16T10:18:21;2.93;;;2.40;;
4642;SDS011;2334;48.710;9.622;2022-10-16T10:20:57;3.10;;;2.70;;
4642;SDS011;2334;48.710;9.622;2022-10-16T10:23:27;6.87;;;2.63;;
4642;SDS011;2334;48.710;9.622;2022-10-16T10:25:57;13.57;;;3.30;;
4642;SDS011;2334;48.710;9.622;2022-10-16T10:28:33;3.47;;;3.10;;
4642;SDS011;2334;48.710;9.622;2022-10-16T10:31:14;4.80;;;2.70;;
4642;SDS011;2334;48.710;9.622;2022-10-16T10:33:49;3.30;;;3.00;;
4642;SDS011;2334;48.710;9.622;2022-10-16T10:36:23;3.67;;;2.40;;
4642;SDS011;2334;48.710;9.622;2022-10-16T10:38:57;4.13;;;2.47;;
4642;SDS011;2334;48.710;9.622;2022-10-16T10:41:29;5.20;;;2.67;;
4642;SDS011;2334;48.710;9.622;2022-10-16T10:44:24;5.03;;;2.50;;
4642;SDS011;2334;48.710;9.622;2022-10-16T10:47:01;2.60;;;2.00;;
4642;SDS011;2334;48.710;9.622;2022-10-16T10:49:42;2.33;;;2.03;;
4642;SDS011;2334;48.710;9.622;2022-10-16T10:52:24;6.00;;;2.23;;
4642;SDS011;2334;48.710;9.622;2022-10-16T10:55:10;3.43;;;1.60;;
4642;SDS011;2334;48.710;9.622;2022-10-16T10:57:47;2.80;;;2.03;;
4642;SDS011;2334;48.710;9.622;2022-10-16T11:00:26;1.33;;;1.23;;
4642;SDS011;2334;48.710;9.622;2022-10-16T11:02:58;2.03;;;1.67;;
4642;SDS011;2334;48.710;9.622;2022-10-16T11:05:39;5.47;;;1.40;;
4642;SDS011;2334;48.710;9.622;2022-10-16T11:08:09;2.97;;;1.10;;
4642;SDS011;2334;48.710;9.622;2022-10-16T11:10:44;2.40;;;1.50;;
4642;SDS011;2334;48.710;9.622;2022-10-16T11:13:17;1.63;;;1.30;;
4642;SDS011;2334;48.710;9.622;2022-10-16T11:15:50;6.23;;;1.20;;
4642;SDS011;2334;48.710;9.622;2022-10-16T11:18:22;1.80;;;1.13;;
4642;SDS011;2334;48.710;9.622;2022-10-16T11:20:57;5.10;;;1.57;;
4642;SDS011;2334;48.710;9.622;2022-10-16T11:23:26;3.57;;;0.93;;
4642;SDS011;2334;48.710;9.622;2022-10-16T11:25:59;2.30;;;1.10;;
4642;SDS011;2334;48.710;9.622;2022-10-16T11:28:29;2.87;;;1.27;;
4642;SDS011;2334;48.710;9.622;2022-10-16T11:31:00;1.20;;;0.90;;
4642;SDS011;2334;48.710;9.622;2022-10-16T11:33:32;2.20;;;1.10;;
4642;SDS011;2334;48.710;9.622;2022-10-16T11:36:08;7.63;;;1.53;;
4642;SDS011;2334;48.710;9.622;2022-10-16T11:38:43;1.37;;;1.07;;
4642;SDS011;2334;48.710;9.622;2022-10-16T11:41:18;1.83;;;0.97;;
4642;SDS011;2334;48.710;9.622;2022-10-16T11:43:52;1.03;;;0.97;;
4642;SDS011;2334;48.710;9.622;2022-10-16T11:46:30;1.10;;;1.00;;
4642;SDS011;2334;48.710;9.622;2022-10-16T11:49:00;1.03;;;0.93;;
4642;SDS011;2334;48.710;9.622;2022-10-16T11:51:33;1.90;;;1.27;;
4642;SDS011;2334;48.710;9.622;2022-10-16T11:54:04;1.17;;;0.90;;
4642;SDS011;2334;48.710;9.622;2022-10-16T11:56:44;0.80;;;0.80;;
4642;SDS011;2334;48.710;9.622;2022-10-16T11:59:14;1.27;;;1.17;;
4642;SDS011;2334;48.710;9.622;2022-10-16T12:01:47;2.07;;;1.30;;
4642;SDS011;2334;48.710;9.622;2022-10-16T12:04:20;1.37;;;1.27;;
4642;SDS011;2334;48.710;9.622;2022-10-16T12:06:55;4.37;;;1.73;;
4642;SDS011;2334;48.710;9.622;2022-10-16T12:09:26;2.30;;;1.40;;
4642;SDS011;2334;48.710;9.622;2022-10-16T12:11:57;4.53;;;1.47;;
4642;SDS011;2334;48.710;9.622;2022-10-16T12:14:36;2.47;;;1.60;;
4642;SDS011;2334;48.710;9.622;2022-10-16T12:19:57;0.80;;;0.80;;
4642;SDS011;2334;48.710;9.622;2022-10-16T12:22:27;1.17;;;1.07;;
4642;SDS011;2334;48.710;9.622;2022-10-16T12:24:55;6.37;;;0.90;;
4642;SDS011;2334;48.710;9.622;2022-10-16T12:27:28;2.07;;;1.20;;
4642;SDS011;2334;48.710;9.622;2022-10-16T12:29:57;2.20;;;1.20;;
4642;SDS011;2334;48.710;9.622;2022-10-16T12:32:28;2.20;;;1.43;;
4642;SDS011;2334;48.710;9.622;2022-10-16T12:34:58;2.10;;;1.80;;
4642;SDS011;2334;48.710;9.622;2022-10-16T12:37:27;5.70;;;1.40;;
4642;SDS011;2334;48.710;9.622;2022-10-16T12:39:57;2.50;;;2.00;;
4642;SDS011;2334;48.710;9.622;2022-10-16T12:42:33;3.40;;;1.13;;
4642;SDS011;2334;48.710;9.622;2022-10-16T12:45:01;1.20;;;1.10;;
4642;SDS011;2334;48.710;9.622;2022-10-16T12:47:49;4.60;;;2.20;;
4642;SDS011;2334;48.710;9.622;2022-10-16T12:53:17;5.80;;;2.63;;
4642;SDS011;2334;48.710;9.622;2022-10-16T12:55:48;2.97;;;2.50;;
4642;SDS011;2334;48.710;9.622;2022-10-16T12:58:28;2.63;;;2.13;;
4642;SDS011;2334;48.710;9.622;2022-10-16T13:01:08;2.63;;;1.40;;
4642;SDS011;2334;48.710;9.622;2022-10-16T13:03:48;1.10;;;1.00;;
4642;SDS011;2334;48.710;9.622;2022-10-16T13:06:33;1.20;;;1.10;;
4642;SDS011;2334;48.710;9.622;2022-10-16T13:09:08;7.73;;;1.57;;
4642;SDS011;2334;48.710;9.622;2022-10-16T13:11:54;0.97;;;0.97;;
4642;SDS011;2334;48.710;9.622;2022-10-16T13:14:53;1.13;;;1.13;;
4642;SDS011;2334;48.710;9.622;2022-10-16T13:17:40;1.17;;;1.00;;
4642;SDS011;2334;48.710;9.622;2022-10-16T13:20:14;2.00;;;1.00;;
4642;SDS011;2334;48.710;9.622;2022-10-16T13:22:49;0.90;;;0.90;;
4642;SDS011;2334;48.710;9.622;2022-10-16T13:25:24;2.87;;;1.47;;
4642;SDS011;2334;48.710;9.622;2022-10-16T13:28:01;2.23;;;0.80;;
4642;SDS011;2334;48.710;9.622;2022-10-16T13:30:31;12.07;;;4.53;;
4642;SDS011;2334;48.710;9.622;2022-10-16T13:33:01;6.33;;;4.10;;
4642;SDS011;2334;48.710;9.622;2022-10-16T13:35:31;15.73;;;8.40;;
4642;SDS011;2334;48.710;9.622;2022-10-16T13:38:03;6.37;;;4.60;;
4642;SDS011;2334;48.710;9.622;2022-10-16T13:40:47;6.33;;;4.93;;
4642;SDS011;2334;48.710;9.622;2022-10-16T13:43:16;3.63;;;3.30;;
4642;SDS011;2334;48.710;9.622;2022-10-16T13:45:53;3.87;;;1.80;;
4642;SDS011;2334;48.710;9.622;2022-10-16T13:48:21;2.93;;;1.30;;
4642;SDS011;2334;48.710;9.622;2022-10-16T13:50:57;1.17;;;1.10;;
4642;SDS011;2334;48.710;9.622;2022-10-16T13:53:29;1.33;;;1.20;;
4642;SDS011;2334;48.710;9.622;2022-10-16T13:55:57;1.90;;;1.10;;
4642;SDS011;2334;48.710;9.622;2022-10-16T13:58:26;1.50;;;1.40;;
4642;SDS011;2334;48.710;9.622;2022-10-16T14:00:56;9.47;;;1.43;;
4642;SDS011;2334;48.710;9.622;2022-10-16T14:03:24;2.90;;;1.40;;
4642;SDS011;2334;48.710;9.622;2022-10-16T14:05:52;1.10;;;0.90;;
4642;SDS011;2334;48.710;9.622;2022-10-16T14:08:21;3.93;;;1.80;;
4642;SDS011;2334;48.710;9.622;2022-10-16T14:10:50;2.37;;;1.20;;
4642;SDS011;2334;48.710;9.622;2022-10-16T14:13:20;2.80;;;1.40;;
4642;SDS011;2334;48.710;9.622;2022-10-16T14:15:54;1.37;;;1.10;;
4642;SDS011;2334;48.710;9.622;2022-10-16T14:18:24;1.33;;;1.23;;
4642;SDS011;2334;48.710;9.622;2022-10-16T14:21:02;5.20;;;1.27;;
4642;SDS011;2334;48.710;9.622;2022-10-16T14:23:31;2.17;;;1.50;;
4642;SDS011;2334;48.710;9.622;2022-10-16T14:26:14;2.53;;;1.00;;
4642;SDS011;2334;48.710;9.622;2022-10-16T14:28:43;1.57;;;1.00;;
4642;SDS011;2334;48.710;9.622;2022-10-16T14:31:37;2.07;;;1.30;;
4642;SDS011;2334;48.710;9.622;2022-10-16T14:34:04;5.20;;;1.10;;
4642;SDS011;2334;48.710;9.622;2022-10-16T14:36:52;3.80;;;1.10;;
4642;SDS011;2334;48.710;9.622;2022-10-16T14:39:20;0.90;;;0.90;;
4642;SDS011;2334;48.710;9.622;2022-10-16T14:41:48;2.50;;;1.10;;
4642;SDS011;2334;48.710;9.622;2022-10-16T14:44:16;1.93;;;1.00;;
4642;SDS011;2334;48.710;9.622;2022-10-16T14:46:46;1.00;;;0.90;;
4642;SDS011;2334;48.710;9.622;2022-10-16T14:49:15;1.20;;;1.10;;
4642;SDS011;2334;48.710;9.622;2022-10-16T14:51:44;0.90;;;0.90;;
4642;SDS011;2334;48.710;9.622;2022-10-16T14:54:12;2.17;;;1.27;;
4642;SDS011;2334;48.710;9.622;2022-10-16T14:56:44;2.00;;;0.97;;
4642;SDS011;2334;48.710;9.622;2022-10-16T14:59:14;3.03;;;1.50;;
4642;SDS011;2334;48.710;9.622;2022-10-16T15:01:43;2.27;;;1.33;;
4642;SDS011;2334;48.710;9.622;2022-10-16T15:04:13;5.33;;;1.80;;
4642;SDS011;2334;48.710;9.622;2022-10-16T15:06:40;6.20;;;1.43;;
4642;SDS011;2334;48.710;9.622;2022-10-16T15:09:08;1.43;;;1.33;;
4642;SDS011;2334;48.710;9.622;2022-10-16T15:11:35;2.10;;;1.40;;
4642;SDS011;2334;48.710;9.622;2022-10-16T15:14:02;2.83;;;1.90;;
4642;SDS011;2334;48.710;9.622;2022-10-16T15:16:30;2.90;;;1.30;;
4642;SDS011;2334;48.710;9.622;2022-10-16T15:18:57;3.20;;;1.50;;
4642;SDS011;2334;48.710;9.622;2022-10-16T15:21:26;1.80;;;1.50;;
4642;SDS011;2334;48.710;9.622;2022-10-16T15:23:55;4.27;;;2.27;;
4642;SDS011;2334;48.710;9.622;2022-10-16T15:26:22;1.40;;;1.30;;
4642;SDS011;2334;48.710;9.622;2022-10-16T15:28:50;2.67;;;1.50;;
4642;SDS011;2334;48.710;9.622;2022-10-16T15:31:17;1.00;;;1.00;;
4642;SDS011;2334;48.710;9.622;2022-10-16T15:33:44;1.70;;;1.23;;
4642;SDS011;2334;48.710;9.622;2022-10-16T15:36:17;1.87;;;1.77;;
4642;SDS011;2334;48.710;9.622;2022-10-16T15:38:52;3.10;;;1.40;;
4642;SDS011;2334;48.710;9.622;2022-10-16T15:41:19;2.53;;;1.20;;
4642;SDS011;2334;48.710;9.622;2022-10-16T15:43:47;3.50;;;1.17;;